This is the latest recevied weather packets stored in our database for station/object AE5HO. If no packets are shown the sender has not sent any weather packets the latest 10 day(s).
| Time | Temp. | Humidity | Pressure | Rain* | Wind** | Luminosity | Snow |
|---|---|---|---|---|---|---|---|
| 1787932881 | 35.56° C | 54% | 1019.2 hPa | 0 mm | - | 571 W/m² | - |
| 1787932580 | 35° C | 56% | 1018.9 hPa | 0 mm | - | 595 W/m² | - |
| 1787932279 | 34.44° C | 59% | 1019.1 hPa | 0 mm | - | 559 W/m² | - |
| 1787931974 | 34.44° C | 57% | 1018.9 hPa | 0 mm | - | 553 W/m² | - |
| 1787931673 | 34.44° C | 56% | 1018.9 hPa | 0 mm | - | 505 W/m² | - |
| 1787931368 | 34.44° C | 58% | 1018.8 hPa | 0 mm | - | 475 W/m² | - |
| 1787931063 | 34.44° C | 59% | 1018.8 hPa | 0 mm | - | 428 W/m² | - |
| 1787930762 | 33.89° C | 61% | 1018.7 hPa | 0 mm | - | 275 W/m² | - |
| 1787930457 | 32.78° C | 63% | 1018.6 hPa | 0 mm | - | 256 W/m² | - |
| 1787930152 | 31.67° C | 64% | 1018.6 hPa | 0 mm | - | 307 W/m² | - |
| 1787929850 | 31.67° C | 64% | 1018.7 hPa | 0 mm | - | 357 W/m² | - |
| 1787929546 | 31.11° C | 68% | 1018.7 hPa | 0 mm | - | 92 W/m² | - |
| 1787929244 | 31.11° C | 66% | 1018.7 hPa | 0 mm | - | 191 W/m² | - |
| 1787928944 | 31.11° C | 66% | 1018.5 hPa | 0 mm | - | 59 W/m² | - |
| 1787928644 | 30.56° C | 67% | 1018.8 hPa | 0 mm | - | 65 W/m² | - |
| 1787928342 | 30.56° C | 68% | 1018.6 hPa | 0 mm | - | 51 W/m² | - |
| 1787928041 | 30.56° C | 68% | 1018.6 hPa | 0 mm | - | 69 W/m² | - |
| 1787927740 | 30° C | 69% | 1018.8 hPa | 0 mm | - | 51 W/m² | - |
| 1787927435 | 30° C | 69% | 1018.7 hPa | 0 mm | - | 57 W/m² | - |
| 1787927131 | 30° C | 71% | 1018.8 hPa | 0 mm | - | 48 W/m² | - |
| 1787926831 | 29.44° C | 71% | 1018.5 hPa | 0 mm | - | 44 W/m² | - |
| 1787926531 | 28.89° C | 71% | 1018.8 hPa | 0 mm | - | 43 W/m² | - |
| 1787926229 | 28.89° C | 72% | 1018.9 hPa | 0 mm | - | 42 W/m² | - |
| 1787925925 | 28.89° C | 74% | 1018.7 hPa | 0 mm | - | 40 W/m² | - |
| 1787925625 | 28.33° C | 75% | 1018.8 hPa | 0 mm | - | 38 W/m² | - |
* Rain latest hour (hover to see other rain measurements)
** Current wind speed in m/s (hover to see current wind gust speed)